createdAt,value
2017-12-05T00:02:24.812Z,100246.36
2017-12-05T00:04:51.281Z,100255.73
2017-12-05T00:07:17.649Z,100270.14
2017-12-05T00:09:44.021Z,100268.50
2017-12-05T00:12:10.447Z,100274.13
2017-12-05T00:14:36.836Z,100278.19
2017-12-05T00:17:03.219Z,100272.70
2017-12-05T00:19:29.640Z,100267.78
2017-12-05T00:21:56.020Z,100260.87
2017-12-05T00:24:22.436Z,100263.32
2017-12-05T00:26:48.837Z,100261.79
2017-12-05T00:29:15.198Z,100271.24
2017-12-05T00:31:41.765Z,100274.74
2017-12-05T00:34:08.168Z,100279.05
2017-12-05T00:36:34.516Z,100275.14
2017-12-05T00:39:00.934Z,100275.27
2017-12-05T00:41:27.473Z,100277.72
2017-12-05T00:43:54.005Z,100277.94
2017-12-05T00:46:20.439Z,100289.86
2017-12-05T00:48:46.888Z,100283.58
2017-12-05T00:51:13.240Z,100290.83
2017-12-05T00:53:39.604Z,100292.40
2017-12-05T00:56:06.069Z,100294.48
2017-12-05T00:58:32.387Z,100304.22
2017-12-05T01:00:58.944Z,100300.63
2017-12-05T01:03:25.344Z,100306.05
2017-12-05T01:05:51.668Z,100302.58
2017-12-05T01:08:18.013Z,100303.05
2017-12-05T01:10:44.368Z,100311.31
2017-12-05T01:13:10.692Z,100312.13
2017-12-05T01:15:37.022Z,100308.42
2017-12-05T01:18:03.459Z,100304.60
2017-12-05T01:20:29.911Z,100316.95
2017-12-05T01:22:56.434Z,100312.95
2017-12-05T01:25:22.788Z,100318.73
2017-12-05T01:27:49.120Z,100319.86
2017-12-05T01:30:15.460Z,100316.40
2017-12-05T01:32:41.828Z,100312.52
2017-12-05T01:35:08.182Z,100312.25
2017-12-05T01:37:34.618Z,100313.08
2017-12-05T01:40:00.980Z,100311.88
2017-12-05T01:42:27.483Z,100307.66
2017-12-05T01:44:53.877Z,100306.22
2017-12-05T01:47:20.324Z,100301.13
2017-12-05T01:49:46.693Z,100296.20
2017-12-05T01:52:13.220Z,100297.31
2017-12-05T01:54:39.649Z,100290.71
2017-12-05T01:57:06.012Z,100293.33
2017-12-05T01:59:32.396Z,100286.80
2017-12-05T02:01:58.950Z,100278.55
2017-12-05T02:04:25.486Z,100278.23
2017-12-05T02:06:51.904Z,100279.76
2017-12-05T02:09:18.405Z,100276.31
2017-12-05T02:11:44.825Z,100276.84
2017-12-05T02:14:11.285Z,100283.56
2017-12-05T02:16:37.708Z,100283.31
2017-12-05T02:19:04.289Z,100282.19
2017-12-05T02:21:30.718Z,100291.61
2017-12-05T02:23:57.116Z,100296.67
2017-12-05T02:26:23.497Z,100305.76
2017-12-05T02:28:49.852Z,100304.87
2017-12-05T02:31:16.262Z,100313.89
2017-12-05T02:33:42.618Z,100317.85
2017-12-05T02:36:08.980Z,100323.22
2017-12-05T02:38:35.377Z,100315.55
2017-12-05T02:41:08.883Z,100317.77
2017-12-05T02:43:35.296Z,100309.83
2017-12-05T02:46:01.815Z,100312.55
2017-12-05T02:48:28.263Z,100316.49
2017-12-05T02:50:54.680Z,100320.44
2017-12-05T02:53:21.145Z,100319.13
2017-12-05T02:55:47.581Z,100329.88
2017-12-05T02:58:14.037Z,100332.65
2017-12-05T03:00:40.532Z,100324.08
2017-12-05T03:03:06.949Z,100325.78
2017-12-05T03:05:33.370Z,100320.95
2017-12-05T03:07:59.847Z,100321.75
2017-12-05T03:10:26.276Z,100329.10
2017-12-05T03:12:52.663Z,100332.13
2017-12-05T03:15:19.224Z,100329.20
2017-12-05T03:17:45.661Z,100329.48
2017-12-05T03:20:12.104Z,100333.13
2017-12-05T03:22:38.536Z,100333.95
2017-12-05T03:25:04.940Z,100329.85
2017-12-05T03:27:31.317Z,100338.60
2017-12-05T03:29:57.696Z,100325.66
2017-12-05T03:32:24.048Z,100333.42
2017-12-05T03:34:50.402Z,100320.20
2017-12-05T03:37:16.813Z,100329.20
2017-12-05T03:39:43.172Z,100328.38
2017-12-05T03:42:09.511Z,100327.25
2017-12-05T03:44:35.879Z,100321.55
2017-12-05T03:47:02.341Z,100332.64
2017-12-05T03:49:28.670Z,100327.55
2017-12-05T03:51:55.032Z,100331.33
2017-12-05T03:54:21.368Z,100342.58
2017-12-05T03:56:47.712Z,100336.33
2017-12-05T03:59:14.200Z,100334.91
2017-12-05T04:01:40.557Z,100331.46
2017-12-05T04:04:06.905Z,100336.24
2017-12-05T04:06:33.324Z,100332.81
2017-12-05T04:08:59.676Z,100337.00
2017-12-05T04:11:26.032Z,100335.25
2017-12-05T04:13:52.444Z,100336.48
2017-12-05T04:16:18.818Z,100338.48
2017-12-05T04:18:45.181Z,100341.30
2017-12-05T04:21:11.596Z,100348.08
2017-12-05T04:23:37.940Z,100340.17
2017-12-05T04:26:04.276Z,100339.69
2017-12-05T04:28:30.660Z,100343.59
2017-12-05T04:30:57.124Z,100349.17
2017-12-05T04:33:23.472Z,100351.81
2017-12-05T04:35:49.895Z,100343.17
2017-12-05T04:38:16.308Z,100338.50
2017-12-05T04:40:42.704Z,100346.20
2017-12-05T04:43:09.116Z,100364.41
2017-12-05T04:45:35.540Z,100370.41
2017-12-05T04:48:01.944Z,100375.83
2017-12-05T04:50:28.332Z,100381.47
2017-12-05T04:52:54.732Z,100380.33
2017-12-05T04:55:21.245Z,100382.06
2017-12-05T04:57:47.732Z,100380.99
2017-12-05T05:00:14.148Z,100375.77
2017-12-05T05:02:40.576Z,100383.25
2017-12-05T05:05:07.058Z,100376.21
2017-12-05T05:07:33.433Z,100371.51
2017-12-05T05:09:59.804Z,100367.05
2017-12-05T05:12:26.228Z,100375.30
2017-12-05T05:14:52.629Z,100382.20
2017-12-05T05:17:19.037Z,100374.50
2017-12-05T05:19:45.449Z,100375.19
2017-12-05T05:22:11.856Z,100380.25
2017-12-05T05:24:38.224Z,100388.15
2017-12-05T05:27:04.688Z,100380.69
2017-12-05T05:29:31.124Z,100390.92
2017-12-05T05:31:57.470Z,100395.36
2017-12-05T05:34:23.889Z,100396.47
2017-12-05T05:36:50.268Z,100399.84
2017-12-05T05:39:16.609Z,100387.48
2017-12-05T05:41:43.040Z,100384.98
2017-12-05T05:44:09.576Z,100381.51
2017-12-05T05:46:35.964Z,100387.13
2017-12-05T05:49:02.388Z,100394.62
2017-12-05T05:51:28.800Z,100390.72
2017-12-05T05:53:55.161Z,100395.53
2017-12-05T05:56:21.568Z,100408.02
2017-12-05T05:58:47.916Z,100407.90
2017-12-05T06:01:14.269Z,100403.13
2017-12-05T06:03:40.736Z,100415.78
2017-12-05T06:06:07.075Z,100413.87
2017-12-05T06:08:33.436Z,100408.92
2017-12-05T06:10:59.856Z,100414.94
2017-12-05T06:13:26.311Z,100412.52
2017-12-05T06:15:52.653Z,100421.94
2017-12-05T06:18:19.071Z,100427.15
2017-12-05T06:20:45.417Z,100425.16
2017-12-05T06:23:11.769Z,100436.17
2017-12-05T06:25:38.155Z,100436.47
2017-12-05T06:28:04.508Z,100445.05
2017-12-05T06:30:30.863Z,100451.26
2017-12-05T06:32:57.243Z,100447.42
2017-12-05T06:35:23.616Z,100457.33
2017-12-05T06:37:49.984Z,100462.72
2017-12-05T06:40:16.376Z,100453.41
2017-12-05T06:42:42.724Z,100448.97
2017-12-05T06:45:09.137Z,100449.88
2017-12-05T06:47:35.600Z,100446.63
2017-12-05T06:50:02.061Z,100445.58
2017-12-05T06:52:28.610Z,100451.53
2017-12-05T06:54:55.143Z,100448.36
2017-12-05T06:57:21.559Z,100438.31
2017-12-05T06:59:47.961Z,100450.53
2017-12-05T07:02:14.472Z,100455.02
2017-12-05T07:04:42.775Z,100469.15
2017-12-05T07:07:09.821Z,100463.58
2017-12-05T07:09:36.288Z,100471.72
2017-12-05T07:12:02.711Z,100463.06
2017-12-05T07:14:29.154Z,100466.38
2017-12-05T07:16:55.641Z,100478.07
2017-12-05T07:19:22.243Z,100477.98
2017-12-05T07:21:48.678Z,100483.51
2017-12-05T07:24:15.185Z,100484.25
2017-12-05T07:26:41.724Z,100484.02
2017-12-05T07:29:08.225Z,100486.62
2017-12-05T07:31:34.842Z,100495.37
2017-12-05T07:34:01.284Z,100490.48
2017-12-05T07:36:27.712Z,100491.33
2017-12-05T07:38:54.189Z,100496.99
2017-12-05T07:41:20.654Z,100484.77
2017-12-05T07:43:47.076Z,100483.91
2017-12-05T07:46:13.576Z,100490.03
2017-12-05T07:48:40.083Z,100489.73
2017-12-05T07:51:06.541Z,100498.55
2017-12-05T07:53:32.992Z,100498.86
2017-12-05T07:55:59.388Z,100495.27
2017-12-05T07:58:25.822Z,100497.53
2017-12-05T08:00:52.292Z,100490.00
2017-12-05T08:03:18.992Z,100483.10
2017-12-05T08:05:45.418Z,100489.09
2017-12-05T08:08:12.138Z,100488.63
2017-12-05T08:10:38.592Z,100494.38
2017-12-05T08:13:05.060Z,100499.73
2017-12-05T08:15:31.548Z,100501.97
2017-12-05T08:17:58.044Z,100498.48
2017-12-05T08:20:24.477Z,100497.81
2017-12-05T08:22:50.996Z,100498.50
2017-12-05T08:25:17.495Z,100503.08
2017-12-05T08:27:43.921Z,100512.09
2017-12-05T08:30:10.475Z,100514.40
2017-12-05T08:32:36.917Z,100504.53
2017-12-05T08:35:03.519Z,100501.64
2017-12-05T08:37:30.072Z,100500.89
2017-12-05T08:39:56.520Z,100503.91
2017-12-05T08:42:22.956Z,100505.03
2017-12-05T08:44:49.456Z,100502.22
2017-12-05T08:47:15.867Z,100506.97
2017-12-05T08:49:42.295Z,100506.28
2017-12-05T08:52:08.793Z,100497.05
2017-12-05T08:54:35.252Z,100497.42
2017-12-05T08:57:01.702Z,100489.64
2017-12-05T08:59:28.196Z,100491.58
2017-12-05T09:01:54.649Z,100491.53
2017-12-05T09:04:21.100Z,100483.57
2017-12-05T09:06:47.593Z,100489.02
2017-12-05T09:09:13.996Z,100489.56
2017-12-05T09:11:40.445Z,100479.09
2017-12-05T09:14:06.942Z,100487.44
2017-12-05T09:16:33.378Z,100476.67
2017-12-05T09:18:59.796Z,100474.77
2017-12-05T09:21:26.272Z,100477.34
2017-12-05T09:23:52.851Z,100486.08
2017-12-05T09:26:19.288Z,100475.55
2017-12-05T09:28:45.947Z,100472.05
2017-12-05T09:31:12.387Z,100465.13
2017-12-05T09:33:38.863Z,100468.94
2017-12-05T09:36:05.330Z,100478.08
2017-12-05T09:38:31.795Z,100466.80
2017-12-05T09:40:58.247Z,100462.76
2017-12-05T09:43:24.732Z,100451.66
2017-12-05T09:45:51.234Z,100442.28
2017-12-05T09:48:17.776Z,100442.17
2017-12-05T09:50:44.201Z,100436.61
2017-12-05T09:53:10.612Z,100444.73
2017-12-05T09:55:37.047Z,100432.65
2017-12-05T09:58:03.516Z,100443.29
2017-12-05T10:00:29.964Z,100425.59
2017-12-05T10:02:56.396Z,100427.25
2017-12-05T10:05:22.935Z,100414.09
2017-12-05T10:07:49.424Z,100419.12
2017-12-05T10:10:15.892Z,100409.74
2017-12-05T10:12:42.385Z,100413.19
2017-12-05T10:15:08.819Z,100399.72
2017-12-05T10:17:35.236Z,100399.41
2017-12-05T10:20:01.721Z,100397.80
2017-12-05T10:22:28.167Z,100394.89
2017-12-05T10:24:54.625Z,100413.96
2017-12-05T10:27:21.089Z,100419.63
2017-12-05T10:29:47.556Z,100400.41
2017-12-05T10:32:14.010Z,100409.84
2017-12-05T10:34:40.799Z,100419.38
2017-12-05T10:37:07.241Z,100423.37
2017-12-05T10:39:33.689Z,100415.73
2017-12-05T10:42:00.181Z,100405.23
2017-12-05T10:44:26.657Z,100402.68
2017-12-05T10:46:53.137Z,100407.56
2017-12-05T10:49:19.634Z,100386.37
2017-12-05T10:51:46.077Z,100398.27
2017-12-05T10:54:12.544Z,100391.27
2017-12-05T10:56:39.036Z,100391.89
2017-12-05T10:59:05.415Z,100391.75
2017-12-05T11:01:31.844Z,100388.27
2017-12-05T11:03:58.283Z,100383.95
2017-12-05T11:06:24.667Z,100398.88
2017-12-05T11:08:51.140Z,100399.11
2017-12-05T11:11:17.660Z,100405.98
2017-12-05T11:13:44.068Z,100404.36
2017-12-05T11:16:11.630Z,100389.09
2017-12-05T11:18:38.134Z,100388.31
2017-12-05T11:21:04.604Z,100388.53
2017-12-05T11:23:31.124Z,100390.89
2017-12-05T11:25:57.800Z,100408.42
2017-12-05T11:28:24.337Z,100403.22
2017-12-05T11:30:50.882Z,100398.47
2017-12-05T11:33:17.297Z,100399.13
2017-12-05T11:35:43.717Z,100400.77
2017-12-05T11:38:10.111Z,100411.08
2017-12-05T11:40:36.647Z,100407.79
2017-12-05T11:43:03.124Z,100407.66
2017-12-05T11:45:29.499Z,100412.38
2017-12-05T11:47:55.915Z,100405.53
2017-12-05T11:50:22.332Z,100405.66
2017-12-05T11:52:49.044Z,100410.14
2017-12-05T11:55:15.512Z,100407.65
2017-12-05T11:57:42.168Z,100427.37
2017-12-05T12:00:08.649Z,100421.18
2017-12-05T12:02:35.157Z,100422.81
2017-12-05T12:05:01.596Z,100423.73
2017-12-05T12:07:28.037Z,100425.98
2017-12-05T12:09:54.513Z,100428.19
2017-12-05T12:12:20.996Z,100427.03
2017-12-05T12:14:47.365Z,100427.02
2017-12-05T12:17:13.775Z,100426.65
2017-12-05T12:19:40.195Z,100419.14
2017-12-05T12:22:06.579Z,100423.53
2017-12-05T12:24:32.958Z,100438.81
2017-12-05T12:26:59.307Z,100443.79
2017-12-05T12:29:25.700Z,100448.30
2017-12-05T12:31:52.097Z,100446.00
2017-12-05T12:34:18.437Z,100443.68
2017-12-05T12:36:44.792Z,100450.67
2017-12-05T12:39:11.239Z,100449.96
2017-12-05T12:41:37.611Z,100449.24
2017-12-05T12:44:03.997Z,100447.18
2017-12-05T12:46:30.401Z,100476.05
2017-12-05T12:48:56.761Z,100482.55
2017-12-05T12:51:23.112Z,100482.84
2017-12-05T12:53:49.540Z,100478.03
2017-12-05T12:56:15.874Z,100488.56
2017-12-05T12:58:42.331Z,100481.20
2017-12-05T13:01:08.723Z,100487.31
2017-12-05T13:03:35.096Z,100483.98
2017-12-05T13:06:01.456Z,100482.70
2017-12-05T13:08:27.869Z,100482.61
2017-12-05T13:10:54.277Z,100487.13
2017-12-05T13:13:20.640Z,100482.16
2017-12-05T13:15:47.009Z,100491.69
2017-12-05T13:18:13.366Z,100478.33
2017-12-05T13:20:39.720Z,100483.27
2017-12-05T13:23:06.117Z,100495.05
2017-12-05T13:25:32.484Z,100499.41
2017-12-05T13:27:58.881Z,100498.98
2017-12-05T13:30:25.305Z,100506.41
2017-12-05T13:32:51.709Z,100506.64
2017-12-05T13:35:18.117Z,100503.30
2017-12-05T13:37:44.557Z,100495.18
2017-12-05T13:40:10.890Z,100500.11
2017-12-05T13:42:37.312Z,100492.88
2017-12-05T13:45:03.718Z,100491.44
2017-12-05T13:47:30.154Z,100487.13
2017-12-05T13:49:56.769Z,100498.56
2017-12-05T13:52:23.245Z,100505.84
2017-12-05T13:54:49.659Z,100505.41
2017-12-05T13:57:16.069Z,100503.59
2017-12-05T13:59:42.512Z,100509.64
2017-12-05T14:02:08.921Z,100510.03
2017-12-05T14:04:35.446Z,100518.83
2017-12-05T14:07:02.031Z,100528.37
2017-12-05T14:09:28.485Z,100519.64
2017-12-05T14:11:54.938Z,100523.91
2017-12-05T14:14:21.536Z,100516.91
2017-12-05T14:16:47.950Z,100529.72
2017-12-05T14:19:14.294Z,100534.77
2017-12-05T14:21:40.809Z,100538.92
2017-12-05T14:24:07.312Z,100537.63
2017-12-05T14:26:33.733Z,100538.37
2017-12-05T14:29:00.157Z,100543.45
2017-12-05T14:31:26.555Z,100552.39
2017-12-05T14:33:53.033Z,100552.97
2017-12-05T14:36:19.468Z,100553.55
2017-12-05T14:38:46.033Z,100560.55
2017-12-05T14:41:12.481Z,100558.02
2017-12-05T14:43:38.941Z,100564.66
2017-12-05T14:46:05.417Z,100566.48
2017-12-05T14:48:31.789Z,100575.25
2017-12-05T14:50:58.464Z,100578.80
2017-12-05T14:53:24.875Z,100590.59
2017-12-05T14:55:51.317Z,100580.09
2017-12-05T14:58:17.957Z,100584.45
2017-12-05T15:00:44.492Z,100583.69
2017-12-05T15:03:11.075Z,100593.98
2017-12-05T15:05:37.511Z,100583.34
2017-12-05T15:08:03.969Z,100592.78
2017-12-05T15:10:30.364Z,100591.40
2017-12-05T15:12:56.876Z,100600.70
2017-12-05T15:15:23.302Z,100608.00
2017-12-05T15:17:49.754Z,100603.93
2017-12-05T15:20:16.188Z,100606.61
2017-12-05T15:22:42.922Z,100604.13
2017-12-05T15:25:09.417Z,100612.37
2017-12-05T15:27:35.902Z,100613.52
2017-12-05T15:30:02.298Z,100620.35
2017-12-05T15:32:28.770Z,100628.02
2017-12-05T15:34:55.245Z,100624.66
2017-12-05T15:37:21.650Z,100631.20
2017-12-05T15:39:48.173Z,100637.56
2017-12-05T15:42:14.652Z,100641.47
2017-12-05T15:44:41.052Z,100643.34
2017-12-05T15:47:07.434Z,100647.16
2017-12-05T15:49:33.944Z,100649.31
2017-12-05T15:52:00.312Z,100650.58
2017-12-05T15:54:26.700Z,100651.08
2017-12-05T15:56:53.148Z,100646.00
2017-12-05T15:59:19.580Z,100647.63
2017-12-05T16:01:45.970Z,100647.68
2017-12-05T16:04:12.463Z,100648.59
2017-12-05T16:06:38.877Z,100643.02
2017-12-05T16:09:05.285Z,100649.53
2017-12-05T16:11:31.746Z,100647.63
2017-12-05T16:13:58.131Z,100646.66
2017-12-05T16:16:24.608Z,100647.23
2017-12-05T16:18:51.019Z,100653.34
2017-12-05T16:21:17.401Z,100653.83
2017-12-05T16:23:44.036Z,100654.50
2017-12-05T16:26:10.456Z,100652.42
2017-12-05T16:28:36.845Z,100658.86
2017-12-05T16:31:03.312Z,100661.59
2017-12-05T16:33:29.761Z,100665.89
2017-12-05T16:35:56.266Z,100675.16
2017-12-05T16:38:22.691Z,100665.61
2017-12-05T16:40:49.281Z,100668.97
2017-12-05T16:43:15.817Z,100673.20
2017-12-05T16:45:42.554Z,100672.85
2017-12-05T16:48:10.196Z,100675.70
2017-12-05T16:50:36.737Z,100677.53
2017-12-05T16:53:03.209Z,100684.07
2017-12-05T16:55:29.649Z,100685.98
2017-12-05T16:57:56.036Z,100696.23
2017-12-05T17:00:23.509Z,100705.91
2017-12-05T17:02:50.092Z,100710.50
2017-12-05T17:05:16.552Z,100719.69
2017-12-05T17:07:42.984Z,100713.40
2017-12-05T17:10:09.660Z,100726.12
2017-12-05T17:12:36.152Z,100719.53
2017-12-05T17:15:02.762Z,100726.33
2017-12-05T17:17:29.189Z,100718.97
2017-12-05T17:19:55.569Z,100725.37
2017-12-05T17:22:22.056Z,100725.37
2017-12-05T17:24:48.514Z,100724.16
2017-12-05T17:27:14.924Z,100736.27
2017-12-05T17:29:41.355Z,100734.10
2017-12-05T17:32:08.839Z,100739.53
2017-12-05T17:34:35.216Z,100742.81
2017-12-05T17:37:01.611Z,100738.77
2017-12-05T17:39:28.344Z,100739.00
2017-12-05T17:41:55.084Z,100737.74
2017-12-05T17:44:21.465Z,100737.28
2017-12-05T17:46:47.945Z,100737.82
2017-12-05T17:49:14.330Z,100736.62
2017-12-05T17:51:40.731Z,100730.17
2017-12-05T17:54:07.200Z,100734.02
2017-12-05T17:56:33.553Z,100734.96
2017-12-05T17:58:59.957Z,100739.73
2017-12-05T18:01:26.424Z,100734.13
2017-12-05T18:03:52.862Z,100722.28
2017-12-05T18:06:19.310Z,100727.20
2017-12-05T18:08:45.805Z,100725.37
2017-12-05T18:11:12.241Z,100734.00
2017-12-05T18:13:38.676Z,100731.31
2017-12-05T18:16:05.337Z,100735.25
2017-12-05T18:18:31.777Z,100726.23
2017-12-05T18:20:58.269Z,100729.00
2017-12-05T18:23:24.900Z,100723.73
2017-12-05T18:25:51.333Z,100725.98
2017-12-05T18:28:18.256Z,100723.78
2017-12-05T18:30:44.757Z,100727.88
2017-12-05T18:33:11.188Z,100727.92
2017-12-05T18:35:37.648Z,100725.27
2017-12-05T18:38:04.125Z,100724.17
2017-12-05T18:40:30.554Z,100729.22
2017-12-05T18:42:56.980Z,100729.03
2017-12-05T18:45:23.433Z,100738.84
2017-12-05T18:47:49.880Z,100740.12
2017-12-05T18:50:16.324Z,100741.42
2017-12-05T18:52:42.804Z,100741.70
2017-12-05T18:55:09.274Z,100735.25
2017-12-05T18:57:35.730Z,100741.19
2017-12-05T19:00:02.193Z,100747.55
2017-12-05T19:02:28.660Z,100748.02
2017-12-05T19:04:55.104Z,100754.33
2017-12-05T19:07:21.723Z,100757.38
2017-12-05T19:09:48.167Z,100754.94
2017-12-05T19:12:14.600Z,100757.69
2017-12-05T19:14:41.209Z,100765.08
2017-12-05T19:17:07.646Z,100772.26
2017-12-05T19:19:34.093Z,100767.68
2017-12-05T19:22:00.565Z,100776.00
2017-12-05T19:24:27.133Z,100772.80
2017-12-05T19:26:53.634Z,100775.13
2017-12-05T19:29:20.088Z,100776.32
2017-12-05T19:31:46.501Z,100772.75
2017-12-05T19:34:12.933Z,100770.61
2017-12-05T19:36:39.440Z,100770.42
2017-12-05T19:39:05.876Z,100773.03
2017-12-05T19:41:32.312Z,100777.15
2017-12-05T19:43:58.942Z,100783.83
2017-12-05T19:46:25.398Z,100789.61
2017-12-05T19:48:51.840Z,100792.36
2017-12-05T19:51:18.325Z,100786.11
2017-12-05T19:53:44.761Z,100787.64
2017-12-05T19:56:11.208Z,100792.06
2017-12-05T19:58:37.755Z,100796.17
2017-12-05T20:01:04.205Z,100796.31
2017-12-05T20:03:30.610Z,100798.92
2017-12-05T20:05:57.083Z,100794.84
2017-12-05T20:08:23.516Z,100798.45
2017-12-05T20:10:49.972Z,100807.17
2017-12-05T20:13:16.472Z,100810.10
2017-12-05T20:15:42.985Z,100808.00
2017-12-05T20:18:09.519Z,100806.77
2017-12-05T20:20:36.057Z,100805.52
2017-12-05T20:23:02.590Z,100806.77
2017-12-05T20:25:29.029Z,100803.92
2017-12-05T20:27:55.528Z,100805.20
2017-12-05T20:30:22.001Z,100798.23
2017-12-05T20:32:48.504Z,100804.26
2017-12-05T20:35:14.968Z,100799.43
2017-12-05T20:37:41.421Z,100788.44
2017-12-05T20:40:07.857Z,100797.48
2017-12-05T20:42:34.332Z,100791.82
2017-12-05T20:45:00.779Z,100787.73
2017-12-05T20:47:27.209Z,100787.89
2017-12-05T20:49:53.536Z,100799.34
2017-12-05T20:52:19.769Z,100798.49
2017-12-05T20:54:46.012Z,100801.31
2017-12-05T20:57:12.317Z,100803.98
2017-12-05T20:59:38.548Z,100805.20
2017-12-05T21:02:04.789Z,100809.03
2017-12-05T21:04:31.069Z,100805.27
2017-12-05T21:06:57.318Z,100806.80
2017-12-05T21:09:23.600Z,100806.44
2017-12-05T21:11:49.855Z,100811.95
2017-12-05T21:14:16.116Z,100803.25
2017-12-05T21:16:42.340Z,100799.77
2017-12-05T21:19:08.712Z,100803.98
2017-12-05T21:21:34.944Z,100799.91
2017-12-05T21:24:01.177Z,100804.51
2017-12-05T21:26:27.436Z,100811.11
2017-12-05T21:28:53.662Z,100806.87
2017-12-05T21:31:19.888Z,100802.91
2017-12-05T21:33:46.160Z,100799.61
2017-12-05T21:36:12.407Z,100808.34
2017-12-05T21:38:38.637Z,100807.31
2017-12-05T21:41:04.921Z,100811.30
2017-12-05T21:43:31.437Z,100814.11
2017-12-05T21:45:58.044Z,100820.63
2017-12-05T21:48:24.682Z,100819.23
2017-12-05T21:50:51.422Z,100822.75
2017-12-05T21:53:18.062Z,100817.41
2017-12-05T21:55:45.530Z,100822.50
2017-12-05T21:58:12.570Z,100813.34
2017-12-05T22:00:39.620Z,100818.26
2017-12-05T22:03:06.439Z,100822.50
2017-12-05T22:05:33.217Z,100823.31
2017-12-05T22:08:00.043Z,100823.56
2017-12-05T22:10:26.883Z,100827.69
2017-12-05T22:12:53.506Z,100825.95
2017-12-05T22:15:20.021Z,100831.25
2017-12-05T22:17:46.660Z,100830.88
2017-12-05T22:20:13.160Z,100832.87
2017-12-05T22:22:39.514Z,100837.84
2017-12-05T22:25:05.925Z,100831.85
2017-12-05T22:27:32.287Z,100832.30
2017-12-05T22:29:58.631Z,100834.76
2017-12-05T22:32:25.091Z,100832.64
2017-12-05T22:34:51.464Z,100836.06
2017-12-05T22:37:17.796Z,100825.62
2017-12-05T22:39:44.161Z,100834.55
2017-12-05T22:42:10.517Z,100837.30
2017-12-05T22:44:36.951Z,100835.67
2017-12-05T22:47:03.361Z,100838.04
2017-12-05T22:49:29.716Z,100847.81
2017-12-05T22:51:56.078Z,100845.20
2017-12-05T22:54:22.460Z,100839.19
2017-12-05T22:56:48.809Z,100840.63
2017-12-05T22:59:15.161Z,100847.27
2017-12-05T23:01:41.574Z,100845.91
2017-12-05T23:04:07.920Z,100854.94
2017-12-05T23:06:34.269Z,100853.00
2017-12-05T23:09:00.677Z,100845.81
2017-12-05T23:11:27.102Z,100849.69
2017-12-05T23:13:53.434Z,100850.48
2017-12-05T23:16:19.790Z,100848.13
2017-12-05T23:18:46.144Z,100862.45
2017-12-05T23:21:12.516Z,100853.25
2017-12-05T23:23:38.936Z,100852.35
2017-12-05T23:26:05.291Z,100852.15
2017-12-05T23:28:31.653Z,100860.31
2017-12-05T23:30:58.035Z,100851.53
2017-12-05T23:33:24.386Z,100851.41
2017-12-05T23:35:50.736Z,100854.97
2017-12-05T23:38:17.120Z,100859.21
2017-12-05T23:40:43.468Z,100858.16
2017-12-05T23:43:09.824Z,100855.02
2017-12-05T23:45:36.197Z,100856.77
2017-12-05T23:48:02.608Z,100858.22
2017-12-05T23:50:28.952Z,100857.14
2017-12-05T23:52:55.361Z,100864.92
2017-12-05T23:55:21.704Z,100860.16
2017-12-05T23:57:48.104Z,100850.37
